Richard B Russell Airport
KRMG : now visible

Aeroporto :











RITROVATECI SU...

 
LOGIN :

Iscrizione | Disclaimer

   EN    FR    IT 

 









Sommario :    VFR   VFR Marginale   IFR   IFR Intensivo   IFR Molto Intensivo
Visibilità : 
Base nubi : 
>= 8 km
>= 3000ft
5 / 8 km
1000 / 3000 ft
1500m / 5 km
500 / 1000 ft
800 / 1500m
200 / 500 ft
< 800m
< 200 ft
Simboli :   Temporali  Nebbia  Neve Forte  Precipitazioni Forti  Vento > 20 kt






- Altitudine del aeroporto : 644 ft


KRMG - Richard B Russell

ULTIMO METAR :
  • 250653Z AUTO 25005KT 10SM FEW043 06/01 A3002 RMK AO2 SLP162 T00560011

METARs OBSOLETI :
  • 250553Z AUTO 27007KT 10SM BKN041 06/01 A3001 RMK AO2 SLP161 T00610011 10100 20061 53007
  • 250453Z AUTO 27007KT 10SM OVC038 08/02 A3000 RMK AO2 SLP158 T00780017 401280050

TAF N/A



MetMap, La meteo Aeronautica in un colpo d'occhio ! - Copyright ORBIFLY Dicembre 2007 - Disclaimer

ORBIFLY MET'MAP TEAM :

Programmazione e sviluppo : Alexandra Zaïnal
Concezione : Baudouin d'Aumeries
Aiuto per la programmazione : Marc-Olivier Méhu
Supporto tecnico e logistico : Manuel Goepfert
Aiuto per la traduzione : Arnaldo La Scala

Contatto : metmap@orbifly.com




FONTI E CREDITI :

   NOAA       Earth
Advisory